Ana Sayfa
METAR-TAF:

METAR-TAF

Havaalanları :

Hemphill County Airport

Canadian, Teksas, Amerika Birleşik Devletleri

Enlem: 35-54N, Boylam: 100-24W, yükseklik: 730 m

Güncel hava durumu gözlemi

Rapor saat 11:55 UTC de 29 dakika önce yapıldı.
Rüzgar güney/güneybatıdan 5 kt
Sıcaklık 22°C
Nem 78%
Basınç 1010 hPa
Görüş mesafesi: 16.1 km
Açık gökyüzü

METAR: KHHF 161155Z AUTO 20005KT 10SM CLR 22/18 A2982 RMK AO2 T02200178 10260 20220

Saat: 07:24 (12:24 UTC)


TAF: eksik

4.000'den fazla havaalanı için hava durumu gözlemleri ve tahminleri (METAR ve TAF raporları).

Kullanılabilir istasyonlar harita üzerinde sarı ve kırmızı noktalarla gösterilir.

İstasyonun adını görmek için fareyi noktanın üzerinde gezdirin.

Sonrasında hava gözlem ve tahminlerini görmek için tıklayın.

Haritayı değiştirmek için: yaklaştırmak için siyah artı işaretli yeşil düğmeye ve uzaklaştırmak için de eksi işaretli düğmeye hızla tıklayın; bitişik haritalar için yeşil okları kullanın.


METAR-TAF: